createdAt,value
2018-10-06T00:03:54.769Z,92.00
2018-10-06T00:08:57.862Z,91.60
2018-10-06T00:14:03.162Z,90.80
2018-10-06T00:19:06.179Z,90.10
2018-10-06T00:24:09.366Z,87.90
2018-10-06T00:29:12.449Z,91.10
2018-10-06T00:34:15.461Z,93.20
2018-10-06T00:39:18.542Z,94.00
2018-10-06T00:44:21.457Z,96.90
2018-10-06T00:49:24.467Z,96.70
2018-10-06T00:54:27.447Z,97.20
2018-10-06T00:59:30.390Z,97.60
2018-10-06T01:04:33.363Z,94.60
2018-10-06T01:09:36.309Z,96.10
2018-10-06T01:14:39.274Z,96.10
2018-10-06T01:19:42.993Z,97.00
2018-10-06T01:24:45.934Z,95.00
2018-10-06T01:29:48.883Z,94.30
2018-10-06T01:34:51.829Z,94.70
2018-10-06T01:39:54.795Z,95.60
2018-10-06T01:44:57.668Z,95.40
2018-10-06T01:50:01.772Z,94.70
2018-10-06T01:55:05.013Z,92.20
2018-10-06T02:00:08.015Z,93.20
2018-10-06T02:05:10.987Z,92.50
2018-10-06T02:10:13.954Z,90.10
2018-10-06T02:15:16.870Z,88.90
2018-10-06T02:20:19.825Z,92.00
2018-10-06T02:25:22.796Z,93.90
2018-10-06T02:30:25.777Z,93.40
2018-10-06T02:35:28.749Z,92.40
2018-10-06T02:40:31.741Z,95.00
2018-10-06T02:45:34.724Z,95.90
2018-10-06T02:50:37.636Z,97.30
2018-10-06T02:55:40.681Z,97.40
2018-10-06T03:00:43.577Z,99.30
2018-10-06T03:05:46.536Z,93.30
2018-10-06T03:10:49.473Z,96.20
2018-10-06T03:15:52.724Z,98.90
2018-10-06T03:20:55.694Z,99.70
2018-10-06T03:25:58.636Z,99.90
2018-10-06T03:31:03.771Z,99.90
2018-10-06T03:36:06.983Z,97.60
2018-10-06T03:41:09.951Z,96.40
2018-10-06T03:46:13.174Z,96.70
2018-10-06T03:51:16.121Z,99.30
2018-10-06T03:56:19.248Z,99.90
2018-10-06T04:01:22.242Z,99.90
2018-10-06T04:06:25.195Z,99.90
2018-10-06T04:11:29.282Z,99.90
2018-10-06T04:16:32.175Z,99.90
2018-10-06T04:21:42.603Z,98.10
2018-10-06T04:26:45.621Z,99.00
2018-10-06T04:31:48.564Z,99.90
2018-10-06T04:36:51.788Z,99.40
2018-10-06T04:41:54.977Z,99.90
2018-10-06T04:46:58.264Z,99.90
2018-10-06T04:52:03.927Z,99.90
2018-10-06T04:57:06.921Z,95.70
2018-10-06T05:02:10.145Z,97.10
2018-10-06T05:07:13.141Z,99.60
2018-10-06T05:12:16.669Z,99.20
2018-10-06T05:17:19.696Z,97.90
2018-10-06T05:22:22.770Z,99.30
2018-10-06T05:27:25.822Z,99.90
2018-10-06T05:32:28.992Z,99.90
2018-10-06T05:37:32.180Z,99.30
2018-10-06T05:42:35.166Z,99.90
2018-10-06T05:47:38.164Z,99.90
2018-10-06T05:52:41.262Z,99.90
2018-10-06T05:57:44.196Z,99.90
2018-10-06T06:02:47.157Z,99.90
2018-10-06T06:07:50.137Z,99.90
2018-10-06T06:12:53.195Z,98.50
2018-10-06T06:17:56.144Z,97.80
2018-10-06T06:22:59.271Z,96.80
2018-10-06T06:28:04.735Z,93.00
2018-10-06T06:33:07.723Z,92.60
2018-10-06T06:38:11.201Z,88.20
2018-10-06T06:43:14.132Z,87.10
2018-10-06T06:48:17.094Z,85.70
2018-10-06T06:53:20.033Z,86.60
2018-10-06T06:58:23.152Z,84.70
2018-10-06T07:03:26.102Z,82.70
2018-10-06T07:08:29.112Z,80.20
2018-10-06T07:13:32.209Z,78.50
2018-10-06T07:18:36.002Z,78.10
2018-10-06T07:23:39.104Z,75.90
2018-10-06T07:28:42.092Z,73.90
2018-10-06T07:33:45.029Z,72.10
2018-10-06T07:38:47.987Z,69.90
2018-10-06T07:43:50.997Z,70.60
2018-10-06T07:48:54.077Z,70.00
2018-10-06T07:53:57.253Z,67.70
2018-10-06T07:59:00.236Z,66.90
2018-10-06T08:04:04.697Z,65.20
2018-10-06T08:09:08.312Z,66.10
2018-10-06T08:14:11.355Z,67.40
2018-10-06T08:19:14.357Z,66.70
2018-10-06T08:24:17.276Z,66.20
2018-10-06T08:29:21.114Z,67.50
2018-10-06T08:34:24.286Z,68.90
2018-10-06T08:39:27.456Z,68.00
2018-10-06T08:44:30.417Z,67.10
2018-10-06T08:49:33.480Z,67.50
2018-10-06T08:54:36.440Z,70.40
2018-10-06T08:59:39.429Z,70.30
2018-10-06T09:04:42.414Z,69.70
2018-10-06T09:09:45.451Z,69.40
2018-10-06T09:14:48.532Z,69.10
2018-10-06T09:19:51.516Z,68.30
2018-10-06T09:24:54.576Z,67.60
2018-10-06T09:29:57.544Z,67.50
2018-10-06T09:35:01.131Z,66.80
2018-10-06T09:40:04.315Z,67.50
2018-10-06T09:45:07.443Z,67.50
2018-10-06T09:50:10.509Z,66.60
2018-10-06T09:55:13.484Z,67.60
2018-10-06T10:00:21.575Z,66.60
2018-10-06T10:05:30.354Z,66.60
2018-10-06T10:10:33.352Z,67.10
2018-10-06T10:15:37.427Z,66.30
2018-10-06T10:20:40.828Z,66.50
2018-10-06T10:25:43.795Z,65.60
2018-10-06T10:30:46.815Z,64.40
2018-10-06T10:35:50.182Z,63.10
2018-10-06T10:40:53.402Z,62.80
2018-10-06T10:45:56.378Z,61.50
2018-10-06T10:50:59.424Z,62.10
2018-10-06T10:56:03.265Z,62.20
2018-10-06T11:01:06.503Z,61.30
2018-10-06T11:06:09.540Z,61.90
2018-10-06T11:11:12.542Z,60.80
2018-10-06T11:16:15.601Z,60.10
2018-10-06T11:21:18.627Z,60.30
2018-10-06T11:26:21.673Z,59.50
2018-10-06T11:31:24.672Z,58.20
2018-10-06T11:36:27.634Z,58.10
2018-10-06T11:41:30.639Z,57.70
2018-10-06T11:46:33.647Z,58.00
2018-10-06T11:51:36.671Z,57.30
2018-10-06T11:56:39.704Z,58.30
2018-10-06T12:01:43.069Z,59.60
2018-10-06T12:06:46.166Z,58.80
2018-10-06T12:11:49.326Z,59.10
2018-10-06T12:16:52.488Z,59.30
2018-10-06T12:21:55.814Z,59.30
2018-10-06T12:26:59.059Z,59.20
2018-10-06T12:32:04.467Z,58.90
2018-10-06T12:37:07.506Z,59.00
2018-10-06T12:42:10.611Z,58.40
2018-10-06T12:47:13.523Z,57.90
2018-10-06T12:52:16.496Z,58.50
2018-10-06T12:57:19.472Z,58.00
2018-10-06T13:02:22.513Z,57.00
2018-10-06T13:07:25.508Z,56.00
2018-10-06T13:12:28.558Z,56.10
2018-10-06T13:17:31.630Z,54.60
2018-10-06T13:22:34.818Z,55.00
2018-10-06T13:27:37.843Z,54.70
2018-10-06T13:32:41.060Z,55.30
2018-10-06T13:37:44.003Z,56.10
2018-10-06T13:42:47.005Z,56.50
2018-10-06T13:47:49.898Z,57.20
2018-10-06T13:52:52.931Z,56.60
2018-10-06T13:57:55.960Z,57.30
2018-10-06T14:02:59.076Z,57.20
2018-10-06T14:08:03.240Z,57.10
2018-10-06T14:13:06.645Z,57.30
2018-10-06T14:18:09.830Z,57.50
2018-10-06T14:23:13.203Z,57.60
2018-10-06T14:28:16.376Z,57.10
2018-10-06T14:33:19.508Z,56.90
2018-10-06T14:38:22.513Z,57.30
2018-10-06T14:43:25.627Z,57.30
2018-10-06T14:48:28.715Z,57.20
2018-10-06T14:53:31.857Z,57.30
2018-10-06T14:58:34.843Z,56.60
2018-10-06T15:03:38.064Z,56.90
2018-10-06T15:08:41.005Z,57.40
2018-10-06T15:13:43.948Z,57.80
2018-10-06T15:18:46.934Z,58.10
2018-10-06T15:23:49.865Z,58.70
2018-10-06T15:28:52.862Z,58.30
2018-10-06T15:33:55.837Z,57.90
2018-10-06T15:38:58.789Z,58.00
2018-10-06T15:44:02.758Z,58.70
2018-10-06T15:49:05.939Z,58.70
2018-10-06T15:54:09.106Z,59.40
2018-10-06T15:59:12.067Z,60.00
2018-10-06T16:04:15.120Z,60.70
2018-10-06T16:09:18.036Z,61.30
2018-10-06T16:14:21.002Z,61.80
2018-10-06T16:19:24.098Z,62.30
2018-10-06T16:24:27.060Z,63.30
2018-10-06T16:29:29.987Z,64.80
2018-10-06T16:34:32.901Z,64.80
2018-10-06T16:39:35.804Z,65.10
2018-10-06T16:44:38.720Z,65.70
2018-10-06T16:49:41.702Z,66.60
2018-10-06T16:54:44.721Z,67.40
2018-10-06T16:59:47.746Z,67.70
2018-10-06T17:04:50.693Z,67.30
2018-10-06T17:09:53.686Z,68.00
2018-10-06T17:14:56.811Z,68.70
2018-10-06T17:19:59.841Z,70.20
2018-10-06T17:25:05.468Z,70.50
2018-10-06T17:30:08.539Z,70.20
2018-10-06T17:35:11.688Z,71.10
2018-10-06T17:40:14.881Z,72.70
2018-10-06T17:45:17.906Z,72.60
2018-10-06T17:50:21.280Z,72.30
2018-10-06T17:55:24.325Z,72.00
2018-10-06T18:00:27.339Z,72.10
2018-10-06T18:05:30.374Z,72.30
2018-10-06T18:10:33.412Z,74.00
2018-10-06T18:15:36.432Z,74.40
2018-10-06T18:20:40.040Z,74.00
2018-10-06T18:25:43.267Z,73.90
2018-10-06T18:30:46.378Z,75.10
2018-10-06T18:35:49.458Z,75.30
2018-10-06T18:40:52.538Z,75.80
2018-10-06T18:45:55.525Z,76.90
2018-10-06T18:50:58.689Z,78.70
2018-10-06T18:56:02.729Z,78.20
2018-10-06T19:01:06.593Z,79.70
2018-10-06T19:06:09.684Z,81.40
2018-10-06T19:11:12.616Z,82.60
2018-10-06T19:16:15.770Z,80.90
2018-10-06T19:21:18.672Z,80.90
2018-10-06T19:26:21.639Z,82.00
2018-10-06T19:31:24.660Z,82.90
2018-10-06T19:36:27.706Z,79.70
2018-10-06T19:41:30.613Z,81.00
2018-10-06T19:46:33.606Z,82.20
2018-10-06T19:51:37.639Z,83.50
2018-10-06T19:56:40.650Z,83.40
2018-10-06T20:01:43.873Z,83.50
2018-10-06T20:06:46.971Z,82.20
2018-10-06T20:11:50.240Z,82.20
2018-10-06T20:16:53.334Z,83.60
2018-10-06T20:21:57.247Z,83.70
2018-10-06T20:27:01.831Z,85.10
2018-10-06T20:32:05.114Z,85.60
2018-10-06T20:37:08.147Z,89.10
2018-10-06T20:42:11.208Z,90.80
2018-10-06T20:47:14.242Z,88.10
2018-10-06T20:52:17.292Z,89.40
2018-10-06T20:57:20.274Z,89.90
2018-10-06T21:02:23.206Z,90.60
2018-10-06T21:07:26.236Z,90.10
2018-10-06T21:12:29.402Z,89.60
2018-10-06T21:17:32.527Z,90.90
2018-10-06T21:22:35.628Z,89.70
2018-10-06T21:27:38.794Z,87.30
2018-10-06T21:32:41.842Z,90.20
2018-10-06T21:37:44.976Z,91.60
2018-10-06T21:42:48.016Z,91.50
2018-10-06T21:47:51.049Z,90.60
2018-10-06T21:52:54.080Z,89.80
2018-10-06T21:57:57.164Z,90.80
2018-10-06T22:03:00.234Z,90.30
2018-10-06T22:08:05.636Z,89.70
2018-10-06T22:13:08.551Z,88.80
2018-10-06T22:18:11.661Z,89.20
2018-10-06T22:23:15.259Z,90.60
2018-10-06T22:28:18.352Z,90.30
2018-10-06T22:33:21.365Z,91.10
2018-10-06T22:38:24.630Z,94.80
2018-10-06T22:43:27.637Z,97.10
2018-10-06T22:48:30.647Z,98.20
2018-10-06T22:53:33.736Z,95.00
2018-10-06T22:58:36.772Z,96.50
2018-10-06T23:03:39.840Z,98.60
2018-10-06T23:08:42.822Z,97.00
2018-10-06T23:13:45.757Z,95.90
2018-10-06T23:18:48.749Z,98.60
2018-10-06T23:23:51.771Z,98.70
2018-10-06T23:28:54.794Z,99.00
2018-10-06T23:33:57.703Z,97.80
2018-10-06T23:39:02.493Z,96.40
2018-10-06T23:44:05.465Z,94.30
2018-10-06T23:49:08.488Z,94.90
2018-10-06T23:54:11.624Z,94.50
2018-10-06T23:59:14.677Z,94.50
